createdAt,value
2018-09-08T00:02:22.492Z,17.07
2018-09-08T00:04:53.973Z,15.60
2018-09-08T00:07:29.393Z,17.48
2018-09-08T00:09:59.642Z,14.53
2018-09-08T00:12:29.468Z,18.57
2018-09-08T00:15:04.226Z,14.80
2018-09-08T00:17:38.759Z,14.47
2018-09-08T00:20:13.745Z,14.45
2018-09-08T00:22:48.812Z,15.32
2018-09-08T00:25:23.750Z,14.63
2018-09-08T00:28:05.659Z,14.63
2018-09-08T00:30:35.501Z,16.47
2018-09-08T00:33:05.452Z,14.70
2018-09-08T00:35:35.907Z,16.80
2018-09-08T00:38:05.726Z,15.00
2018-09-08T00:40:35.581Z,15.30
2018-09-08T00:43:05.606Z,15.43
2018-09-08T00:45:36.106Z,16.50
2018-09-08T00:48:06.014Z,13.10
2018-09-08T00:50:36.144Z,14.73
2018-09-08T00:53:05.976Z,14.97
2018-09-08T00:55:35.959Z,16.40
2018-09-08T00:58:05.782Z,18.33
2018-09-08T01:00:35.903Z,15.97
2018-09-08T01:03:05.745Z,15.20
2018-09-08T01:05:35.597Z,17.73
2018-09-08T01:08:05.474Z,17.13
2018-09-08T01:10:35.520Z,19.10
2018-09-08T01:13:05.521Z,17.92
2018-09-08T01:15:35.786Z,18.83
2018-09-08T01:18:06.325Z,17.98
2018-09-08T01:20:36.177Z,18.57
2018-09-08T01:23:08.540Z,21.40
2018-09-08T01:25:39.467Z,19.98
2018-09-08T01:28:09.330Z,19.67
2018-09-08T01:30:39.192Z,21.53
2018-09-08T01:33:08.950Z,21.60
2018-09-08T01:35:39.287Z,22.90
2018-09-08T01:38:09.416Z,19.27
2018-09-08T01:40:39.409Z,23.77
2018-09-08T01:43:09.162Z,20.63
2018-09-08T01:45:38.932Z,20.00
2018-09-08T01:48:08.811Z,19.65
2018-09-08T01:50:39.286Z,21.77
2018-09-08T01:53:09.440Z,19.87
2018-09-08T01:55:39.507Z,19.83
2018-09-08T01:58:09.347Z,20.35
2018-09-08T02:00:39.294Z,19.93
2018-09-08T02:03:10.505Z,20.88
2018-09-08T02:05:41.483Z,20.15
2018-09-08T02:08:12.339Z,21.90
2018-09-08T02:10:43.696Z,22.64
2018-09-08T02:13:14.893Z,21.10
2018-09-08T02:15:45.721Z,20.10
2018-09-08T02:18:16.410Z,22.22
2018-09-08T02:20:47.361Z,22.05
2018-09-08T02:23:18.796Z,21.64
2018-09-08T02:25:49.642Z,21.20
2018-09-08T02:28:20.381Z,21.87
2018-09-08T02:30:51.357Z,24.35
2018-09-08T02:33:23.322Z,21.45
2018-09-08T02:35:53.318Z,24.05
2018-09-08T02:38:24.212Z,24.50
2018-09-08T02:40:54.618Z,28.77
2018-09-08T02:43:25.422Z,25.08
2018-09-08T02:45:56.509Z,25.00
2018-09-08T02:48:27.367Z,26.75
2018-09-08T02:50:56.605Z,25.32
2018-09-08T02:53:27.300Z,24.88
2018-09-08T02:55:58.130Z,25.44
2018-09-08T02:58:27.690Z,26.93
2018-09-08T03:00:56.903Z,27.57
2018-09-08T03:03:26.635Z,24.77
2018-09-08T03:05:54.602Z,23.67
2018-09-08T03:08:22.745Z,25.40
2018-09-08T03:10:50.717Z,22.07
2018-09-08T03:13:18.745Z,19.90
2018-09-08T03:15:46.837Z,21.77
2018-09-08T03:18:14.816Z,22.27
2018-09-08T03:20:42.808Z,20.43
2018-09-08T03:23:10.766Z,21.80
2018-09-08T03:25:38.970Z,20.63
2018-09-08T03:28:06.985Z,19.73
2018-09-08T03:30:34.901Z,19.50
2018-09-08T03:33:03.045Z,19.90
2018-09-08T03:35:30.982Z,19.30
2018-09-08T03:37:58.914Z,19.97
2018-09-08T03:40:26.998Z,21.13
2018-09-08T03:42:55.017Z,20.27
2018-09-08T03:45:22.952Z,21.47
2018-09-08T03:47:50.935Z,21.00
2018-09-08T03:50:18.868Z,21.13
2018-09-08T03:52:46.938Z,22.53
2018-09-08T03:55:14.903Z,22.87
2018-09-08T03:57:42.829Z,20.87
2018-09-08T04:00:10.896Z,20.33
2018-09-08T04:02:40.863Z,19.20
2018-09-08T04:05:10.696Z,19.07
2018-09-08T04:07:40.676Z,22.40
2018-09-08T04:10:10.538Z,20.67
2018-09-08T04:12:40.608Z,16.90
2018-09-08T04:15:10.483Z,17.57
2018-09-08T04:17:40.480Z,22.17
2018-09-08T04:20:10.931Z,17.40
2018-09-08T04:22:40.708Z,18.40
2018-09-08T04:25:10.563Z,18.27
2018-09-08T04:27:40.366Z,20.30
2018-09-08T04:30:10.556Z,16.90
2018-09-08T04:32:40.437Z,20.90
2018-09-08T04:35:10.503Z,18.93
2018-09-08T04:37:40.483Z,19.90
2018-09-08T04:40:10.513Z,22.20
2018-09-08T04:42:40.688Z,23.87
2018-09-08T04:45:10.626Z,22.90
2018-09-08T04:47:40.513Z,28.67
2018-09-08T04:50:10.513Z,26.37
2018-09-08T04:52:40.715Z,26.23
2018-09-08T04:55:10.729Z,28.87
2018-09-08T04:57:40.828Z,31.30
2018-09-08T05:00:10.931Z,28.73
2018-09-08T05:02:40.778Z,29.90
2018-09-08T05:05:12.559Z,28.47
2018-09-08T05:07:42.476Z,29.13
2018-09-08T05:10:12.617Z,29.50
2018-09-08T05:12:42.684Z,30.47
2018-09-08T05:15:12.465Z,29.63
2018-09-08T05:17:42.965Z,31.20
2018-09-08T05:20:12.825Z,22.23
2018-09-08T05:22:42.765Z,26.73
2018-09-08T05:25:12.628Z,21.07
2018-09-08T05:27:42.530Z,19.07
2018-09-08T05:30:12.545Z,23.17
2018-09-08T05:32:42.893Z,24.43
2018-09-08T05:35:12.821Z,17.20
2018-09-08T05:37:42.754Z,16.47
2018-09-08T05:40:12.633Z,14.73
2018-09-08T05:42:43.500Z,22.37
2018-09-08T05:45:13.549Z,20.70
2018-09-08T05:47:43.534Z,15.70
2018-09-08T05:50:15.296Z,15.27
2018-09-08T05:52:45.521Z,12.87
2018-09-08T05:55:15.614Z,15.13
2018-09-08T05:57:45.896Z,14.63
2018-09-08T06:00:15.795Z,13.00
2018-09-08T06:02:45.530Z,13.70
2018-09-08T06:05:15.495Z,13.47
2018-09-08T06:07:45.431Z,10.30
2018-09-08T06:10:15.408Z,12.47
2018-09-08T06:12:45.667Z,12.80
2018-09-08T06:15:15.350Z,9.70
2018-09-08T06:17:45.817Z,9.87
2018-09-08T06:20:15.533Z,9.17
2018-09-08T06:22:45.329Z,9.93
2018-09-08T06:25:15.408Z,9.57
2018-09-08T06:27:45.720Z,9.97
2018-09-08T06:30:15.568Z,11.27
2018-09-08T06:32:45.513Z,9.77
2018-09-08T06:35:15.461Z,11.60
2018-09-08T06:37:45.668Z,13.03
2018-09-08T06:40:15.574Z,9.33
2018-09-08T06:42:45.536Z,9.73
2018-09-08T06:45:15.777Z,10.20
2018-09-08T06:47:46.239Z,9.05
2018-09-08T06:50:16.534Z,10.72
2018-09-08T06:52:47.124Z,9.25
2018-09-08T06:55:17.300Z,9.18
2018-09-08T06:57:47.075Z,9.33
2018-09-08T07:00:16.933Z,9.53
2018-09-08T07:02:46.874Z,10.50
2018-09-08T07:05:17.190Z,10.10
2018-09-08T07:07:46.957Z,11.37
2018-09-08T07:10:16.934Z,8.17
2018-09-08T07:12:47.173Z,10.25
2018-09-08T07:15:17.275Z,9.13
2018-09-08T07:17:47.182Z,9.23
2018-09-08T07:20:17.034Z,10.60
2018-09-08T07:22:47.234Z,8.32
2018-09-08T07:25:17.086Z,8.67
2018-09-08T07:27:46.999Z,10.47
2018-09-08T07:30:17.602Z,11.34
2018-09-08T07:32:48.577Z,9.75
2018-09-08T07:35:19.297Z,8.30
2018-09-08T07:37:50.164Z,9.73
2018-09-08T07:40:21.456Z,11.18
2018-09-08T07:42:52.360Z,9.90
2018-09-08T07:45:23.194Z,8.73
2018-09-08T07:47:54.609Z,11.02
2018-09-08T07:50:25.443Z,10.18
2018-09-08T07:52:56.586Z,12.03
2018-09-08T07:55:27.449Z,15.05
2018-09-08T07:57:58.554Z,9.73
2018-09-08T08:00:29.415Z,9.83
2018-09-08T08:03:00.550Z,10.85
2018-09-08T08:05:32.462Z,10.28
2018-09-08T08:08:02.451Z,13.10
2018-09-08T08:10:33.276Z,13.25
2018-09-08T08:13:04.346Z,10.68
2018-09-08T08:15:35.327Z,10.88
2018-09-08T08:18:06.721Z,10.56
2018-09-08T08:20:37.357Z,11.25
2018-09-08T08:23:09.905Z,11.18
2018-09-08T08:25:39.850Z,12.40
2018-09-08T08:28:10.636Z,14.83
2018-09-08T08:30:41.548Z,12.03
2018-09-08T08:33:12.623Z,11.75
2018-09-08T08:35:43.615Z,15.25
2018-09-08T08:38:14.672Z,11.20
2018-09-08T08:40:45.483Z,13.43
2018-09-08T08:43:16.455Z,10.72
2018-09-08T08:45:47.437Z,10.28
2018-09-08T08:48:18.644Z,9.60
2018-09-08T08:50:59.913Z,11.60
2018-09-08T08:53:42.188Z,11.20
2018-09-08T08:56:12.266Z,12.07
2018-09-08T08:58:42.439Z,10.32
2018-09-08T09:01:13.056Z,8.97
2018-09-08T09:03:42.813Z,9.90
2018-09-08T09:06:12.706Z,11.33
2018-09-08T09:08:43.160Z,10.93
2018-09-08T09:11:13.437Z,9.98
2018-09-08T09:13:43.264Z,11.83
2018-09-08T09:16:13.423Z,7.80
2018-09-08T09:18:54.381Z,14.40
2018-09-08T09:21:34.656Z,7.53
2018-09-08T09:24:26.004Z,9.90
2018-09-08T09:26:55.645Z,11.07
2018-09-08T09:29:25.576Z,7.67
2018-09-08T09:31:55.539Z,9.70
2018-09-08T09:34:25.604Z,7.73
2018-09-08T09:36:55.479Z,7.00
2018-09-08T09:39:25.430Z,7.43
2018-09-08T09:41:55.494Z,8.67
2018-09-08T09:44:25.499Z,7.27
2018-09-08T09:46:55.692Z,8.27
2018-09-08T09:49:25.768Z,5.87
2018-09-08T09:51:55.572Z,6.77
2018-09-08T09:54:27.904Z,5.63
2018-09-08T09:56:57.930Z,6.27
2018-09-08T09:59:27.853Z,5.83
2018-09-08T10:02:02.426Z,5.90
2018-09-08T10:04:32.628Z,7.10
2018-09-08T10:07:02.731Z,5.10
2018-09-08T10:09:32.823Z,5.57
2018-09-08T10:12:02.804Z,5.60
2018-09-08T10:14:32.783Z,5.00
2018-09-08T10:17:02.843Z,5.87
2018-09-08T10:19:39.143Z,5.20
2018-09-08T10:22:09.217Z,5.80
2018-09-08T10:24:39.252Z,5.30
2018-09-08T10:27:09.389Z,8.35
2018-09-08T10:29:39.530Z,5.80
2018-09-08T10:32:09.675Z,6.03
2018-09-08T10:34:39.648Z,4.63
2018-09-08T10:37:09.554Z,7.00
2018-09-08T10:39:39.583Z,4.97
2018-09-08T10:42:09.645Z,4.83
2018-09-08T10:44:39.541Z,5.10
2018-09-08T10:47:09.842Z,5.03
2018-09-08T10:49:39.929Z,4.90
2018-09-08T10:52:22.162Z,5.13
2018-09-08T10:54:52.275Z,5.47
2018-09-08T10:57:22.406Z,4.55
2018-09-08T10:59:53.039Z,4.03
2018-09-08T11:02:23.425Z,4.53
2018-09-08T11:04:53.514Z,4.37
2018-09-08T11:07:23.616Z,4.10
2018-09-08T11:09:53.483Z,4.17
2018-09-08T11:12:23.548Z,4.30
2018-09-08T11:14:53.660Z,5.03
2018-09-08T11:17:23.739Z,4.83
2018-09-08T11:19:53.817Z,7.70
2018-09-08T11:22:23.621Z,4.40
2018-09-08T11:24:53.481Z,4.13
2018-09-08T11:27:23.608Z,4.50
2018-09-08T11:29:53.627Z,3.97
2018-09-08T11:32:23.845Z,4.40
2018-09-08T11:34:53.937Z,3.70
2018-09-08T11:37:23.911Z,5.70
2018-09-08T11:39:53.666Z,5.83
2018-09-08T11:42:23.510Z,4.93
2018-09-08T11:44:53.496Z,4.93
2018-09-08T11:47:23.721Z,4.37
2018-09-08T11:49:53.652Z,4.27
2018-09-08T11:52:23.476Z,4.00
2018-09-08T11:54:53.610Z,3.70
2018-09-08T11:57:23.539Z,4.43
2018-09-08T11:59:53.388Z,3.60
2018-09-08T12:02:23.705Z,4.83
2018-09-08T12:04:53.538Z,3.97
2018-09-08T12:07:23.509Z,3.63
2018-09-08T12:09:53.953Z,4.73
2018-09-08T12:12:23.750Z,3.13
2018-09-08T12:14:54.126Z,3.37
2018-09-08T12:17:24.273Z,7.17
2018-09-08T12:19:54.624Z,5.35
2018-09-08T12:22:24.662Z,3.50
2018-09-08T12:24:54.937Z,7.05
2018-09-08T12:27:25.133Z,4.15
2018-09-08T12:30:03.271Z,3.93
2018-09-08T12:32:33.107Z,2.87
2018-09-08T12:35:03.677Z,3.30
2018-09-08T12:37:33.434Z,2.83
2018-09-08T12:40:03.561Z,2.70
2018-09-08T12:42:33.801Z,3.10
2018-09-08T12:45:04.785Z,3.08
2018-09-08T12:47:35.517Z,2.62
2018-09-08T12:50:05.783Z,3.83
2018-09-08T12:52:36.022Z,2.97
2018-09-08T12:55:06.516Z,2.80
2018-09-08T12:57:36.621Z,2.70
2018-09-08T13:00:06.842Z,4.23
2018-09-08T13:02:36.539Z,4.95
2018-09-08T13:05:06.433Z,3.60
2018-09-08T13:07:36.339Z,6.03
2018-09-08T13:10:06.337Z,8.73
2018-09-08T13:12:36.241Z,3.60
2018-09-08T13:15:06.929Z,2.87
2018-09-08T13:17:37.010Z,3.00
2018-09-08T13:20:07.033Z,3.07
2018-09-08T13:22:36.883Z,2.70
2018-09-08T13:25:07.356Z,2.50
2018-09-08T13:27:37.124Z,2.80
2018-09-08T13:30:07.743Z,2.87
2018-09-08T13:32:38.967Z,4.80
2018-09-08T13:35:09.035Z,2.30
2018-09-08T13:37:39.822Z,2.22
2018-09-08T13:40:09.603Z,2.30
2018-09-08T13:42:40.554Z,3.00
2018-09-08T13:45:11.311Z,2.25
2018-09-08T13:47:42.356Z,4.45
2018-09-08T13:50:13.154Z,2.80
2018-09-08T13:52:44.794Z,6.16
2018-09-08T13:55:15.629Z,3.08
2018-09-08T13:57:46.662Z,3.22
2018-09-08T14:00:17.495Z,3.77
2018-09-08T14:02:48.522Z,2.70
2018-09-08T14:05:19.309Z,2.42
2018-09-08T14:07:53.033Z,2.10
2018-09-08T14:10:22.940Z,3.57
2018-09-08T14:12:52.739Z,2.47
2018-09-08T14:15:23.376Z,2.75
2018-09-08T14:17:55.030Z,2.40
2018-09-08T14:20:25.959Z,2.37
2018-09-08T14:22:56.789Z,3.40
2018-09-08T14:25:27.576Z,7.00
2018-09-08T14:27:58.431Z,4.35
2018-09-08T14:30:29.343Z,3.37
2018-09-08T14:33:00.438Z,3.75
2018-09-08T14:35:31.442Z,2.62
2018-09-08T14:38:02.260Z,2.30
2018-09-08T14:40:33.449Z,2.37
2018-09-08T14:43:04.205Z,2.60
2018-09-08T14:45:35.598Z,2.48
2018-09-08T14:51:03.878Z,4.50
2018-09-08T14:53:34.510Z,2.57
2018-09-08T14:56:04.699Z,2.37
2018-09-08T14:58:34.516Z,3.20
2018-09-08T15:01:04.607Z,4.60
2018-09-08T15:03:34.521Z,3.60
2018-09-08T15:06:15.501Z,2.63
2018-09-08T15:08:45.716Z,3.73
2018-09-08T15:11:15.522Z,3.10
2018-09-08T15:13:45.556Z,3.53
2018-09-08T15:16:15.520Z,3.20
2018-09-08T15:18:45.415Z,3.83
2018-09-08T15:21:15.608Z,2.50
2018-09-08T15:23:45.460Z,2.40
2018-09-08T15:26:15.425Z,2.60
2018-09-08T15:28:45.589Z,4.03
2018-09-08T15:31:15.443Z,5.50
2018-09-08T15:33:46.062Z,4.83
2018-09-08T15:36:16.056Z,7.60
2018-09-08T15:38:45.894Z,4.57
2018-09-08T15:41:15.851Z,3.23
2018-09-08T15:43:46.053Z,5.20
2018-09-08T15:46:16.158Z,2.63
2018-09-08T15:48:46.004Z,5.50
2018-09-08T15:51:16.390Z,4.90
2018-09-08T15:53:46.909Z,3.12
2018-09-08T15:56:17.529Z,3.20
2018-09-08T15:58:47.547Z,3.13
2018-09-08T16:01:18.055Z,2.83
2018-09-08T16:03:48.247Z,2.35
2018-09-08T16:06:18.009Z,5.73
2018-09-08T16:08:47.970Z,5.20
2018-09-08T16:11:17.914Z,3.23
2018-09-08T16:13:48.415Z,3.10
2018-09-08T16:16:18.203Z,2.60
2018-09-08T16:18:48.078Z,3.03
2018-09-08T16:21:18.133Z,1.87
2018-09-08T16:23:47.926Z,3.23
2018-09-08T16:26:18.073Z,2.87
2018-09-08T16:28:48.319Z,3.47
2018-09-08T16:31:18.321Z,5.20
2018-09-08T16:33:48.134Z,6.40
2018-09-08T16:36:18.477Z,3.42
2018-09-08T16:38:49.302Z,4.25
2018-09-08T16:41:20.237Z,6.08
2018-09-08T16:43:51.525Z,3.48
2018-09-08T16:46:22.229Z,4.17
2018-09-08T16:48:53.314Z,3.37
2018-09-08T16:51:24.229Z,4.53
2018-09-08T16:53:55.294Z,3.62
2018-09-08T16:56:26.288Z,6.17
2018-09-08T16:58:57.357Z,6.85
2018-09-08T17:01:28.567Z,3.22
2018-09-08T17:03:58.405Z,3.20
2018-09-08T17:06:29.124Z,2.58
2018-09-08T17:09:00.756Z,3.88
2018-09-08T17:11:31.377Z,4.60
2018-09-08T17:14:03.297Z,4.75
2018-09-08T17:16:34.239Z,9.40
2018-09-08T17:19:04.300Z,5.80
2018-09-08T17:21:35.100Z,3.83
2018-09-08T17:24:06.708Z,5.84
2018-09-08T17:26:37.536Z,8.03
2018-09-08T17:29:08.589Z,9.20
2018-09-08T17:31:40.556Z,4.58
2018-09-08T17:34:11.085Z,6.47
2018-09-08T17:36:41.568Z,10.27
2018-09-08T17:39:13.801Z,7.05
2018-09-08T17:41:45.894Z,5.67
2018-09-08T17:44:16.191Z,6.63
2018-09-08T17:46:45.935Z,8.10
2018-09-08T17:49:16.621Z,6.08
2018-09-08T17:51:47.296Z,7.85
2018-09-08T17:54:18.405Z,231.95
2018-09-08T17:56:49.309Z,713.48
2018-09-08T17:59:20.726Z,426.58
2018-09-08T18:01:51.639Z,861.05
2018-09-08T18:04:22.691Z,263.45
2018-09-08T18:06:53.724Z,784.90
2018-09-08T18:09:28.625Z,780.73
2018-09-08T18:12:04.624Z,135.80
2018-09-08T18:14:35.332Z,25.40
2018-09-08T18:17:05.527Z,27.63
2018-09-08T18:19:35.497Z,31.80
2018-09-08T18:22:05.294Z,23.80
2018-09-08T18:24:35.027Z,22.87
2018-09-08T18:27:05.249Z,96.73
2018-09-08T18:29:35.177Z,717.55
2018-09-08T18:32:05.352Z,100.17
2018-09-08T18:34:35.037Z,237.97
2018-09-08T18:37:04.875Z,234.67
2018-09-08T18:39:35.596Z,524.88
2018-09-08T18:42:06.409Z,103.78
2018-09-08T18:44:37.305Z,42.83
2018-09-08T18:47:08.205Z,96.37
2018-09-08T18:49:39.536Z,101.98
2018-09-08T18:52:10.543Z,167.20
2018-09-08T18:54:41.493Z,96.17
2018-09-08T18:57:12.540Z,202.35
2018-09-08T18:59:43.482Z,99.65
2018-09-08T19:02:15.462Z,37.58
2018-09-08T19:04:45.736Z,21.67
2018-09-08T19:07:16.461Z,50.35
2018-09-08T19:09:51.358Z,27.50
2018-09-08T19:12:21.079Z,25.70
2018-09-08T19:14:56.100Z,22.93
2018-09-08T19:17:25.821Z,17.00
2018-09-08T19:20:01.120Z,17.38
2018-09-08T19:22:31.241Z,19.83
2018-09-08T19:25:01.041Z,18.63
2018-09-08T19:27:31.249Z,15.43
2018-09-08T19:30:02.828Z,19.10
2018-09-08T19:32:33.125Z,17.02
2018-09-08T19:35:07.710Z,17.77
2018-09-08T19:37:38.578Z,17.57
2018-09-08T19:40:14.448Z,16.35
2018-09-08T19:42:44.693Z,14.37
2018-09-08T19:45:14.956Z,15.30
2018-09-08T19:47:50.061Z,13.68
2018-09-08T19:50:19.882Z,17.67
2018-09-08T19:52:55.506Z,24.55
2018-09-08T19:55:25.505Z,21.57
2018-09-08T19:58:00.717Z,21.57
2018-09-08T20:00:30.496Z,19.17
2018-09-08T20:03:00.505Z,17.30
2018-09-08T20:05:30.594Z,15.70
2018-09-08T20:08:00.774Z,15.27
2018-09-08T20:10:30.762Z,12.60
2018-09-08T20:13:00.651Z,14.33
2018-09-08T20:15:30.629Z,24.30
2018-09-08T20:18:00.768Z,13.03
2018-09-08T20:20:30.655Z,12.47
2018-09-08T20:23:01.209Z,16.77
2018-09-08T20:25:31.335Z,14.07
2018-09-08T20:28:01.273Z,12.68
2018-09-08T20:30:31.588Z,12.10
2018-09-08T20:33:01.497Z,12.60
2018-09-08T20:35:31.425Z,13.80
2018-09-08T20:38:01.246Z,13.47
2018-09-08T20:40:31.476Z,10.67
2018-09-08T20:43:01.298Z,11.33
2018-09-08T20:45:31.141Z,13.93
2018-09-08T20:48:01.088Z,13.23
2018-09-08T20:50:31.328Z,17.30
2018-09-08T20:53:03.548Z,14.90
2018-09-08T20:55:35.946Z,15.58
2018-09-08T20:58:06.563Z,17.25
2018-09-08T21:00:36.382Z,17.43
2018-09-08T21:03:06.547Z,21.13
2018-09-08T21:05:36.403Z,17.48
2018-09-08T21:08:06.211Z,16.33
2018-09-08T21:10:36.203Z,15.87
2018-09-08T21:13:06.027Z,19.57
2018-09-08T21:15:36.676Z,20.46
2018-09-08T21:18:07.560Z,15.38
2018-09-08T21:20:38.386Z,17.07
2018-09-08T21:23:09.458Z,17.05
2018-09-08T21:25:40.265Z,20.40
2018-09-08T21:28:10.837Z,24.30
2018-09-08T21:30:41.758Z,25.62
2018-09-08T21:33:12.478Z,23.15
2018-09-08T21:35:43.581Z,26.75
2018-09-08T21:38:14.938Z,24.77
2018-09-08T21:40:46.863Z,24.82
2018-09-08T21:43:16.683Z,25.77
2018-09-08T21:45:47.651Z,26.55
2018-09-08T21:48:18.617Z,21.62
2018-09-08T21:50:49.510Z,25.57
2018-09-08T21:53:20.540Z,23.07
2018-09-08T21:55:51.426Z,24.37
2018-09-08T21:58:22.730Z,22.70
2018-09-08T22:00:56.237Z,21.37
2018-09-08T22:03:28.071Z,23.40
2018-09-08T22:05:58.384Z,25.38
2018-09-08T22:08:31.902Z,21.27
2018-09-08T22:11:49.736Z,19.45
2018-09-08T22:14:19.972Z,20.37
2018-09-08T22:16:49.758Z,20.30
2018-09-08T22:19:19.719Z,22.83
2018-09-08T22:21:49.577Z,19.17
2018-09-08T22:24:19.557Z,19.47
2018-09-08T22:26:49.635Z,21.77
2018-09-08T22:29:19.468Z,18.30
2018-09-08T22:31:49.581Z,19.17
2018-09-08T22:34:19.794Z,19.93
2018-09-08T22:36:49.725Z,24.37
2018-09-08T22:39:19.633Z,19.13
2018-09-08T22:41:50.077Z,18.50
2018-09-08T22:44:19.869Z,20.53
2018-09-08T22:46:49.764Z,21.80
2018-09-08T22:49:19.576Z,22.50
2018-09-08T22:51:49.561Z,21.87
2018-09-08T22:54:19.593Z,23.57
2018-09-08T22:56:49.746Z,21.87
2018-09-08T22:59:20.063Z,23.00
2018-09-08T23:01:49.955Z,23.50
2018-09-08T23:04:19.767Z,23.57
2018-09-08T23:06:49.948Z,23.00
2018-09-08T23:09:19.798Z,19.13
2018-09-08T23:11:49.591Z,21.27
2018-09-08T23:14:19.613Z,21.23
2018-09-08T23:16:49.604Z,21.53
2018-09-08T23:19:19.886Z,23.53
2018-09-08T23:21:49.729Z,25.43
2018-09-08T23:24:19.594Z,21.50
2018-09-08T23:26:54.030Z,20.57
2018-09-08T23:29:23.881Z,20.33
2018-09-08T23:31:53.887Z,18.73
2018-09-08T23:34:23.672Z,20.80
2018-09-08T23:36:53.943Z,18.90
2018-09-08T23:39:23.760Z,21.87
2018-09-08T23:41:53.523Z,22.17
2018-09-08T23:44:24.182Z,20.60
2018-09-08T23:46:54.266Z,22.20
2018-09-08T23:49:24.438Z,21.23
2018-09-08T23:51:54.472Z,18.93
2018-09-08T23:54:24.675Z,19.40
